Terminal Aerodrome Forecast
Issued by NWS

Home | Current Version | Previous Version | Text Only | Print | Product List | Glossary On
Versions: 1 2 3 4 5 6 7 8 9 10 11 12 13 14 15 16 17 18 19 20 21 22 23 24 25 26 27 28 29 30 31 32 33 34 35 36 37 38 39 40 41 42 43 44 45 46 47 48 49 50
000
FTUS42 KRAH 251121
TAFINT
TAF
KINT 251121Z 2512/2612 20005KT 6SM BR VCSH BKN005 BKN012 OVC025
      TEMPO 2512/2513 SCT008 BKN012
     FM251300 20008KT P6SM VCSH SCT012 BKN050 BKN100
      TEMPO 2513/2515 3SM -TSRAGS BKN015 BKN030CB OVC050
     FM251500 24011KT P6SM VCSH FEW025 BKN035 BKN100
     FM251900 26012G20KT P6SM VCSH BKN040
      TEMPO 2519/2521 26015G30KT -TSRAGS SCT025 BKN040CB OVC100
     FM260000 25004KT P6SM SCT080 BKN100=

USA.gov is the U.S. government's official web portal to all federal, state and local government web resources and services.